Time;durP1;ratioP1;P1;durP2;ratioP2;P2;SDS_P1;SDS_P2;PMS_P1;PMS_P2;Temp;Humidity;BMP_temperature;BMP_pressure;BME280_temperature;BME280_humidity;BME280_pressure;Samples;Min_cycle;Max_cycle;Signal;HPM_P1;HPM_P2
2023/06/04 00:01:02;;;;;;;0.80;0.40;;;15.80;84.60;;;;;;5066437;28;20759;-72
2023/06/04 00:03:32;;;;;;;0.70;0.55;;;15.80;84.80;;;;;;5073849;28;20225;-72
2023/06/04 00:06:01;;;;;;;0.50;0.40;;;15.70;84.40;;;;;;5078436;28;20257;-72
2023/06/04 00:08:29;;;;;;;0.85;0.50;;;15.70;84.40;;;;;;5085038;28;20263;-72
2023/06/04 00:10:57;;;;;;;0.60;0.50;;;15.70;83.90;;;;;;5073970;28;20241;-72
2023/06/04 00:13:25;;;;;;;0.60;0.40;;;15.70;84.40;;;;;;5081706;28;20274;-73
2023/06/04 00:15:53;;;;;;;0.60;0.40;;;15.70;84.60;;;;;;5074214;28;20207;-72
2023/06/04 00:18:21;;;;;;;0.60;0.50;;;15.60;84.40;;;;;;5082114;28;20654;-73
2023/06/04 00:20:49;;;;;;;0.70;0.60;;;15.60;84.60;;;;;;5073399;28;20223;-73
2023/06/04 00:23:18;;;;;;;0.70;0.50;;;15.70;84.10;;;;;;5081009;28;20211;-73
2023/06/04 00:25:46;;;;;;;0.80;0.50;;;15.60;84.30;;;;;;5073678;28;20227;-73
2023/06/04 00:28:14;;;;;;;0.93;0.60;;;15.60;84.50;;;;;;5077830;28;20218;-73
2023/06/04 00:30:42;;;;;;;0.80;0.50;;;15.60;84.40;;;;;;5063958;28;20239;-73
2023/06/04 00:33:10;;;;;;;0.60;0.40;;;15.60;83.80;;;;;;5061861;28;20203;-73
2023/06/04 00:35:38;;;;;;;1.17;0.60;;;15.50;84.30;;;;;;5081362;28;20205;-74
2023/06/04 00:38:06;;;;;;;1.17;0.60;;;15.50;85.00;;;;;;5087284;28;20210;-73
2023/06/04 00:40:35;;;;;;;0.60;0.40;;;15.50;84.30;;;;;;5083685;28;20246;-73
2023/06/04 00:43:03;;;;;;;0.70;0.52;;;15.50;84.60;;;;;;5073438;28;20206;-74
2023/06/04 00:45:31;;;;;;;0.70;0.47;;;15.50;85.40;;;;;;5071030;28;20223;-73
2023/06/04 00:48:00;;;;;;;2.70;0.60;;;15.50;84.60;;;;;;5073139;28;20207;-73
2023/06/04 00:50:28;;;;;;;0.60;0.50;;;15.50;84.30;;;;;;5081106;28;20223;-74
2023/06/04 00:52:57;;;;;;;0.60;0.43;;;15.40;84.80;;;;;;5081591;28;20212;-73
2023/06/04 00:55:25;;;;;;;0.70;0.50;;;15.40;85.50;;;;;;5081770;28;20207;-72
2023/06/04 00:57:54;;;;;;;1.13;0.70;;;15.40;85.30;;;;;;5054672;28;20207;-73
2023/06/04 01:00:22;;;;;;;0.90;0.60;;;15.30;85.00;;;;;;5073037;28;20740;-72
2023/06/04 01:02:53;;;;;;;0.60;0.40;;;15.30;85.70;;;;;;5081160;28;20207;-72
2023/06/04 01:05:30;;;;;;;0.70;0.50;;;15.30;85.40;;;;;;5068279;28;20644;-72
2023/06/04 01:08:02;;;;;;;0.60;0.45;;;15.20;85.30;;;;;;5062480;28;20207;-72
2023/06/04 01:10:30;;;;;;;0.60;0.40;;;15.20;85.50;;;;;;5063847;28;20219;-73
2023/06/04 01:12:59;;;;;;;0.60;0.43;;;15.20;85.50;;;;;;5080469;28;20207;-73
2023/06/04 01:15:27;;;;;;;0.60;0.50;;;15.10;85.60;;;;;;5070837;28;20199;-73
2023/06/04 01:18:02;;;;;;;0.60;0.40;;;15.20;85.50;;;;;;5076565;28;20214;-73
2023/06/04 01:20:36;;;;;;;0.60;0.40;;;15.20;85.70;;;;;;5090919;28;20301;-74
2023/06/04 01:23:20;;;;;;;1.48;0.70;;;15.10;85.90;;;;;;5079810;28;20206;-73
2023/06/04 01:25:50;;;;;;;0.60;0.40;;;15.10;86.30;;;;;;5092581;28;20286;-73
2023/06/04 01:28:20;;;;;;;0.60;0.40;;;15.10;86.80;;;;;;5089950;28;20206;-72
2023/06/04 01:30:50;;;;;;;0.60;0.40;;;15.00;85.60;;;;;;5092586;28;20245;-72
2023/06/04 01:33:20;;;;;;;0.60;0.45;;;15.00;86.10;;;;;;5092712;28;20203;-72
2023/06/04 01:35:48;;;;;;;0.57;0.40;;;15.00;86.10;;;;;;5092356;28;20199;-72
2023/06/04 01:38:16;;;;;;;1.10;0.60;;;14.90;86.10;;;;;;5084576;28;20657;-72
2023/06/04 01:40:44;;;;;;;1.17;0.50;;;15.00;86.10;;;;;;5090753;28;20251;-71
2023/06/04 01:43:12;;;;;;;0.75;0.45;;;15.00;86.30;;;;;;5092512;28;20218;-70
2023/06/04 01:45:41;;;;;;;0.88;0.60;;;14.90;86.70;;;;;;5086882;28;20830;-71
2023/06/04 01:48:09;;;;;;;0.68;0.65;;;14.90;86.40;;;;;;5077908;28;20209;-70
2023/06/04 01:50:37;;;;;;;0.60;0.40;;;14.90;86.30;;;;;;5092077;28;20237;-71
2023/06/04 01:53:06;;;;;;;0.90;0.50;;;14.90;86.20;;;;;;5092278;28;20207;-71
2023/06/04 01:55:34;;;;;;;0.80;0.60;;;14.80;86.50;;;;;;5083227;28;20248;-74
2023/06/04 01:58:02;;;;;;;0.60;0.40;;;14.80;86.30;;;;;;5091812;28;20206;-75
2023/06/04 02:00:30;;;;;;;0.70;0.50;;;14.80;86.90;;;;;;5091881;28;20229;-74
2023/06/04 02:02:59;;;;;;;0.70;0.55;;;14.80;86.50;;;;;;5089003;28;20203;-75
2023/06/04 02:05:27;;;;;;;0.70;0.52;;;14.80;86.60;;;;;;5079923;28;20250;-74
2023/06/04 02:07:57;;;;;;;0.70;0.40;;;14.80;86.80;;;;;;5084126;28;20218;-70
2023/06/04 02:10:25;;;;;;;0.60;0.40;;;14.80;86.40;;;;;;5076380;28;20312;-69
2023/06/04 02:12:57;;;;;;;0.82;0.55;;;14.70;86.90;;;;;;5071882;28;20268;-70
2023/06/04 02:15:26;;;;;;;0.60;0.40;;;14.70;86.30;;;;;;5080349;28;20214;-70
2023/06/04 02:17:58;;;;;;;0.70;0.50;;;14.70;87.70;;;;;;5071056;28;20207;-70
2023/06/04 02:20:28;;;;;;;0.68;0.47;;;14.70;88.30;;;;;;5065554;28;20277;-70
2023/06/04 02:22:56;;;;;;;0.60;0.40;;;14.70;86.00;;;;;;5062928;28;20682;-70
2023/06/04 02:25:24;;;;;;;0.90;0.70;;;14.70;87.50;;;;;;5057358;28;20224;-69
2023/06/04 02:27:52;;;;;;;0.50;0.40;;;14.60;87.70;;;;;;5076959;28;20210;-69
2023/06/04 02:30:20;;;;;;;0.80;0.45;;;14.60;87.20;;;;;;5081222;28;20238;-70
2023/06/04 02:32:50;;;;;;;0.70;0.55;;;14.50;87.40;;;;;;5090697;28;20226;-69
2023/06/04 02:35:20;;;;;;;0.70;0.50;;;14.50;87.20;;;;;;5091569;28;20217;-69
2023/06/04 02:37:50;;;;;;;0.60;0.40;;;14.50;88.30;;;;;;5090842;28;20211;-70
2023/06/04 02:40:18;;;;;;;0.60;0.40;;;14.50;87.70;;;;;;5079753;28;20226;-72
2023/06/04 02:42:46;;;;;;;0.65;0.50;;;14.50;87.50;;;;;;5066389;28;20667;-71
2023/06/04 02:45:14;;;;;;;0.60;0.40;;;14.50;87.50;;;;;;5064399;28;20654;-71
2023/06/04 02:47:42;;;;;;;0.60;0.40;;;14.50;87.20;;;;;;5061313;28;20218;-72
2023/06/04 02:50:12;;;;;;;0.60;0.40;;;14.40;87.80;;;;;;5067352;28;20636;-71
2023/06/04 02:52:39;;;;;;;0.60;0.43;;;14.40;87.40;;;;;;5068814;28;20214;-71
2023/06/04 02:55:12;;;;;;;0.60;0.40;;;14.40;88.20;;;;;;5073371;28;20287;-71
2023/06/04 02:57:42;;;;;;;0.60;0.40;;;14.40;88.20;;;;;;5066773;28;20191;-71
2023/06/04 03:00:12;;;;;;;0.60;0.40;;;14.40;88.40;;;;;;5065359;28;20241;-71
2023/06/04 03:02:42;;;;;;;0.60;0.40;;;14.30;88.30;;;;;;5061592;28;20195;-71
2023/06/04 03:05:12;;;;;;;0.70;0.40;;;14.30;88.50;;;;;;5067063;28;20203;-71
2023/06/04 03:07:42;;;;;;;0.80;0.52;;;14.30;89.50;;;;;;5072154;28;20716;-71
2023/06/04 03:10:13;;;;;;;0.60;0.40;;;14.30;88.30;;;;;;5071154;28;20218;-71
2023/06/04 03:12:41;;;;;;;0.80;0.40;;;14.30;89.00;;;;;;5062205;28;20210;-70
2023/06/04 03:15:10;;;;;;;0.60;0.40;;;14.20;88.80;;;;;;5064588;28;20210;-71
2023/06/04 03:17:38;;;;;;;0.60;0.40;;;14.30;89.60;;;;;;5055120;28;20233;-71
2023/06/04 03:20:07;;;;;;;0.93;0.55;;;14.30;89.50;;;;;;5066400;28;20678;-72
2023/06/04 03:22:36;;;;;;;0.60;0.50;;;14.20;89.00;;;;;;5066357;28;20551;-71
2023/06/04 03:25:05;;;;;;;0.80;0.52;;;14.30;89.30;;;;;;5060396;28;20212;-71
2023/06/04 03:27:34;;;;;;;0.65;0.50;;;14.20;89.70;;;;;;5054892;28;20220;-71
2023/06/04 03:30:03;;;;;;;0.60;0.43;;;14.20;89.30;;;;;;5062277;28;20208;-70
2023/06/04 03:32:31;;;;;;;0.70;0.50;;;14.10;89.60;;;;;;5063360;28;20279;-70
2023/06/04 03:34:58;;;;;;;0.60;0.40;;;14.20;89.70;;;;;;5065056;28;20212;-70
2023/06/04 03:37:27;;;;;;;0.60;0.50;;;14.20;89.30;;;;;;5068378;28;20200;-70
2023/06/04 03:39:55;;;;;;;0.70;0.50;;;14.20;90.00;;;;;;5072899;28;20241;-70
2023/06/04 03:42:23;;;;;;;0.70;0.50;;;14.30;90.70;;;;;;5094592;28;20697;-70
2023/06/04 03:44:53;;;;;;;0.60;0.40;;;14.30;89.30;;;;;;5081902;28;20238;-70
2023/06/04 03:47:21;;;;;;;0.60;0.47;;;14.20;89.60;;;;;;5074235;28;20226;-71
2023/06/04 03:49:49;;;;;;;0.60;0.40;;;14.20;90.10;;;;;;5094043;28;20203;-72
2023/06/04 03:52:17;;;;;;;0.60;0.40;;;14.20;90.20;;;;;;5094981;28;20715;-71
2023/06/04 03:54:44;;;;;;;0.82;0.50;;;14.30;89.70;;;;;;5086115;28;20207;-71
2023/06/04 03:57:12;;;;;;;0.60;0.40;;;14.20;90.30;;;;;;5090867;28;20202;-73
2023/06/04 03:59:40;;;;;;;0.60;0.52;;;14.20;90.60;;;;;;5094819;28;20203;-71
2023/06/04 04:02:10;;;;;;;0.60;0.50;;;14.30;91.20;;;;;;5089707;28;20598;-72
2023/06/04 04:04:37;;;;;;;2.25;0.50;;;14.30;90.60;;;;;;5090915;28;20207;-73
2023/06/04 04:07:05;;;;;;;0.70;0.50;;;14.30;90.10;;;;;;5079428;28;20229;-72
2023/06/04 04:09:35;;;;;;;0.60;0.47;;;14.30;91.50;;;;;;5094051;28;20203;-72
2023/06/04 04:12:03;;;;;;;0.80;0.50;;;14.40;91.00;;;;;;5084787;28;20230;-72
2023/06/04 04:14:31;;;;;;;0.63;0.45;;;14.40;90.80;;;;;;5089805;28;20202;-72
2023/06/04 04:16:59;;;;;;;0.60;0.50;;;14.40;90.90;;;;;;5073657;28;20227;-72
2023/06/04 04:19:29;;;;;;;0.77;0.73;;;14.50;91.00;;;;;;5086834;28;20213;-72
2023/06/04 04:21:56;;;;;;;0.60;0.40;;;14.50;91.40;;;;;;5078511;28;20704;-72
2023/06/04 04:24:25;;;;;;;0.82;0.50;;;14.40;91.30;;;;;;5094086;28;20206;-72
2023/06/04 04:26:54;;;;;;;0.93;0.45;;;14.40;90.80;;;;;;5093866;28;20222;-72
2023/06/04 04:29:24;;;;;;;0.60;0.47;;;14.40;91.30;;;;;;5076540;28;20688;-71
2023/06/04 04:31:53;;;;;;;0.60;0.52;;;14.40;91.70;;;;;;5090214;28;20223;-72
2023/06/04 04:34:21;;;;;;;0.70;0.50;;;14.50;91.60;;;;;;5081081;28;20580;-71
2023/06/04 04:36:52;;;;;;;0.57;0.40;;;14.50;91.60;;;;;;5093405;28;20202;-73
2023/06/04 04:39:20;;;;;;;0.55;0.40;;;14.60;92.20;;;;;;5077251;28;20207;-73
2023/06/04 04:41:48;;;;;;;0.70;0.50;;;14.60;91.80;;;;;;5080119;22;20243;-63
2023/06/04 04:44:16;;;;;;;0.60;0.40;;;14.80;92.30;;;;;;5040465;28;20216;-63
2023/06/04 04:46:44;;;;;;;0.60;0.50;;;14.80;92.30;;;;;;5050639;28;20219;-60
2023/06/04 04:49:12;;;;;;;1.40;0.50;;;14.80;92.00;;;;;;5042607;28;20205;-60
2023/06/04 04:51:40;;;;;;;0.60;0.40;;;14.90;92.20;;;;;;5042208;28;20238;-60
2023/06/04 04:54:09;;;;;;;0.70;0.43;;;14.90;92.30;;;;;;5048528;28;20215;-60
2023/06/04 04:56:37;;;;;;;0.70;0.57;;;14.90;92.50;;;;;;5050834;28;20208;-60
2023/06/04 04:59:05;;;;;;;0.70;0.57;;;14.90;92.20;;;;;;5050330;28;20203;-60
2023/06/04 05:01:33;;;;;;;0.60;0.50;;;15.00;92.50;;;;;;5052504;28;20220;-61
2023/06/04 05:04:01;;;;;;;0.60;0.40;;;15.10;92.50;;;;;;5053240;28;20199;-61
2023/06/04 05:06:30;;;;;;;0.60;0.43;;;15.10;91.70;;;;;;5044443;28;20213;-63
2023/06/04 05:08:58;;;;;;;0.60;0.60;;;15.10;91.70;;;;;;5052820;28;20215;-64
2023/06/04 05:11:27;;;;;;;0.68;0.50;;;15.10;92.00;;;;;;5048615;28;20231;-63
2023/06/04 05:13:55;;;;;;;0.60;0.50;;;15.20;91.80;;;;;;5044882;28;20266;-63
2023/06/04 05:16:23;;;;;;;0.70;0.50;;;15.20;92.10;;;;;;5044440;28;20223;-63
2023/06/04 05:18:51;;;;;;;0.60;0.40;;;15.20;92.10;;;;;;5049061;28;20212;-63
2023/06/04 05:21:19;;;;;;;0.60;0.40;;;15.30;92.80;;;;;;5048142;28;20285;-63
2023/06/04 05:23:48;;;;;;;0.70;0.50;;;15.30;93.10;;;;;;5052613;28;20207;-63
2023/06/04 05:26:17;;;;;;;1.15;0.60;;;15.30;93.40;;;;;;5052591;28;20204;-63
2023/06/04 05:28:46;;;;;;;2.05;0.77;;;15.40;94.00;;;;;;5051915;28;20874;-63
2023/06/04 05:31:15;;;;;;;0.77;0.75;;;15.40;93.20;;;;;;5052534;28;20231;-63
2023/06/04 05:33:43;;;;;;;0.60;0.50;;;15.50;93.10;;;;;;5052334;28;20212;-62
2023/06/04 05:36:12;;;;;;;0.60;0.50;;;15.60;93.20;;;;;;5052030;28;20216;-63
2023/06/04 05:38:40;;;;;;;0.60;0.45;;;15.60;93.40;;;;;;5052078;28;20200;-62
2023/06/04 05:41:08;;;;;;;1.95;0.70;;;15.70;93.10;;;;;;5051862;28;20248;-63
2023/06/04 05:43:36;;;;;;;0.60;0.40;;;15.70;93.40;;;;;;5051685;28;20262;-63
2023/06/04 05:46:07;;;;;;;0.80;0.60;;;15.90;93.90;;;;;;5043870;28;20208;-63
2023/06/04 05:48:35;;;;;;;0.65;0.63;;;15.90;93.90;;;;;;5046426;28;20306;-63
2023/06/04 05:51:03;;;;;;;0.70;0.50;;;16.10;93.70;;;;;;5043911;28;20227;-63
2023/06/04 05:53:31;;;;;;;0.60;0.40;;;16.10;93.50;;;;;;5047887;28;20249;-64
2023/06/04 05:55:59;;;;;;;1.85;0.50;;;16.20;93.50;;;;;;5046685;28;20242;-64
2023/06/04 05:58:27;;;;;;;0.60;0.47;;;16.30;93.90;;;;;;5051419;28;20202;-65
2023/06/04 06:00:55;;;;;;;0.80;0.50;;;16.40;93.90;;;;;;5046552;28;20223;-63
2023/06/04 06:03:27;;;;;;;0.60;0.40;;;16.50;94.30;;;;;;5047174;28;20208;-64
2023/06/04 06:05:57;;;;;;;1.52;0.47;;;16.60;93.40;;;;;;5045179;28;20224;-63
2023/06/04 06:08:25;;;;;;;0.60;0.50;;;16.70;94.50;;;;;;5037671;28;20220;-65
2023/06/04 06:10:53;;;;;;;0.80;0.40;;;16.80;93.40;;;;;;5047147;28;20223;-64
2023/06/04 06:13:21;;;;;;;0.60;0.40;;;16.90;94.40;;;;;;5040223;28;20216;-63
2023/06/04 06:15:49;;;;;;;0.70;0.40;;;17.00;92.90;;;;;;5043914;28;20737;-63
2023/06/04 06:18:17;;;;;;;0.60;0.40;;;17.00;93.30;;;;;;5044342;28;20222;-64
2023/06/04 06:20:46;;;;;;;0.60;0.50;;;17.20;92.80;;;;;;5039609;28;20207;-64
2023/06/04 06:23:16;;;;;;;0.60;0.40;;;17.30;93.30;;;;;;5040120;28;20643;-64
2023/06/04 06:25:45;;;;;;;0.60;0.40;;;17.40;92.00;;;;;;5048670;28;20208;-64
2023/06/04 06:28:13;;;;;;;0.60;0.40;;;17.60;92.70;;;;;;5050646;28;20242;-64
2023/06/04 06:30:41;;;;;;;0.60;0.40;;;17.70;91.30;;;;;;5042789;28;20220;-64
2023/06/04 06:33:09;;;;;;;0.60;0.50;;;17.90;91.30;;;;;;5043643;28;20205;-64
2023/06/04 06:35:37;;;;;;;0.60;0.40;;;18.00;90.60;;;;;;5039936;28;20204;-64
2023/06/04 06:38:06;;;;;;;0.70;0.47;;;18.00;90.20;;;;;;5043973;28;20197;-63
2023/06/04 06:40:35;;;;;;;0.60;0.40;;;18.00;90.40;;;;;;5044299;28;20721;-63
2023/06/04 06:43:03;;;;;;;0.60;0.40;;;18.10;90.50;;;;;;5037701;28;20275;-63
2023/06/04 06:45:30;;;;;;;0.70;0.43;;;18.10;90.80;;;;;;5046326;28;20214;-63
2023/06/04 06:47:58;;;;;;;0.60;0.50;;;18.10;91.20;;;;;;5046590;28;20232;-63
2023/06/04 06:50:26;;;;;;;0.70;0.60;;;18.30;90.80;;;;;;5046748;28;20211;-63
2023/06/04 06:52:54;;;;;;;1.58;0.60;;;18.40;91.80;;;;;;5044347;28;20229;-63
2023/06/04 06:55:24;;;;;;;0.70;0.45;;;18.50;89.50;;;;;;5044397;28;20212;-63
2023/06/04 06:57:51;;;;;;;0.60;0.50;;;18.50;88.90;;;;;;5036035;28;20204;-63
2023/06/04 07:00:21;;;;;;;1.08;0.68;;;18.60;90.40;;;;;;5037113;28;20200;-63
2023/06/04 07:02:49;;;;;;;0.70;0.40;;;18.50;88.20;;;;;;5042922;28;20243;-63
2023/06/04 07:05:17;;;;;;;0.60;0.40;;;18.40;88.50;;;;;;5041015;28;20207;-63
2023/06/04 07:07:46;;;;;;;0.60;0.43;;;18.40;90.20;;;;;;5039479;28;20203;-64
2023/06/04 07:10:14;;;;;;;0.60;0.40;;;18.50;88.50;;;;;;5038558;28;20205;-63
2023/06/04 07:12:43;;;;;;;0.80;0.80;;;18.50;85.50;;;;;;5040793;28;20228;-63
2023/06/04 07:15:11;;;;;;;0.50;0.30;;;18.60;87.30;;;;;;5045689;28;20622;-63
2023/06/04 07:17:39;;;;;;;1.73;0.50;;;18.70;87.00;;;;;;5049597;28;20643;-60
2023/06/04 07:20:09;;;;;;;0.70;0.40;;;18.80;86.60;;;;;;5041306;28;20254;-61
2023/06/04 07:22:37;;;;;;;0.60;0.38;;;18.90;85.80;;;;;;5047747;28;20237;-61
2023/06/04 07:25:06;;;;;;;0.57;0.40;;;19.00;87.30;;;;;;5047021;28;20211;-61
2023/06/04 07:27:34;;;;;;;0.60;0.40;;;19.20;86.70;;;;;;5043173;28;20201;-60
2023/06/04 07:30:05;;;;;;;0.70;0.70;;;19.30;85.20;;;;;;5042787;28;20221;-60
2023/06/04 07:32:33;;;;;;;0.60;0.40;;;19.40;84.90;;;;;;5045896;28;20261;-60
2023/06/04 07:35:01;;;;;;;0.60;0.40;;;19.50;84.70;;;;;;5040275;28;20668;-61
2023/06/04 07:37:29;;;;;;;0.50;0.30;;;19.50;84.10;;;;;;5044454;28;20205;-59
2023/06/04 07:39:57;;;;;;;0.60;0.40;;;19.50;84.90;;;;;;5046934;28;20216;-60
2023/06/04 07:42:25;;;;;;;0.60;0.40;;;19.60;83.70;;;;;;5046002;28;20606;-60
2023/06/04 07:44:53;;;;;;;0.57;0.43;;;19.70;83.40;;;;;;5039651;28;20924;-60
2023/06/04 07:47:23;;;;;;;0.70;0.40;;;19.70;83.70;;;;;;5043460;28;20204;-60
2023/06/04 07:49:51;;;;;;;0.60;0.50;;;19.80;85.70;;;;;;5039246;28;20223;-60
2023/06/04 07:52:30;;;;;;;0.73;0.55;;;20.00;84.00;;;;;;5047123;28;20224;-60
2023/06/04 07:54:58;;;;;;;0.60;0.43;;;20.10;82.00;;;;;;5042567;28;20594;-60
2023/06/04 07:57:25;;;;;;;0.60;0.40;;;20.20;81.70;;;;;;5040488;28;20208;-61
2023/06/04 07:59:53;;;;;;;0.70;0.60;;;20.10;80.10;;;;;;5043582;28;20213;-60
2023/06/04 08:02:23;;;;;;;0.60;0.30;;;20.20;81.70;;;;;;5046349;28;20706;-60
2023/06/04 08:04:51;;;;;;;0.60;0.40;;;20.30;85.10;;;;;;5041018;28;20729;-61
2023/06/04 08:07:19;;;;;;;0.60;0.43;;;20.50;80.60;;;;;;5040167;28;20283;-60
2023/06/04 08:09:47;;;;;;;0.70;0.50;;;20.60;84.80;;;;;;5042091;28;20232;-63
2023/06/04 08:12:16;;;;;;;0.60;0.40;;;20.70;81.30;;;;;;5037870;28;20236;-63
2023/06/04 08:14:43;;;;;;;0.75;0.70;;;20.70;80.10;;;;;;5033858;28;21136;-63
2023/06/04 08:17:11;;;;;;;1.55;0.50;;;20.90;82.50;;;;;;5043800;28;20213;-64
2023/06/04 08:19:40;;;;;;;0.60;0.40;;;21.10;80.80;;;;;;5040277;28;20218;-63
2023/06/04 08:22:11;;;;;;;0.95;0.45;;;21.10;78.20;;;;;;5041026;28;20236;-63
2023/06/04 08:24:39;;;;;;;0.90;0.60;;;21.10;78.30;;;;;;5044886;28;20205;-63
2023/06/04 08:27:08;;;;;;;0.60;0.40;;;21.20;78.30;;;;;;5043333;28;20621;-63
2023/06/04 08:29:36;;;;;;;0.60;0.50;;;21.40;79.80;;;;;;5043059;28;20232;-63
2023/06/04 08:32:05;;;;;;;0.60;0.45;;;21.50;82.20;;;;;;5046342;28;20229;-63
2023/06/04 08:34:33;;;;;;;0.80;0.40;;;21.60;80.50;;;;;;5046280;28;20248;-65
2023/06/04 08:37:03;;;;;;;0.68;0.60;;;21.80;80.30;;;;;;5048065;28;20216;-63
2023/06/04 08:39:31;;;;;;;0.60;0.40;;;21.80;80.90;;;;;;5043233;28;20213;-63
2023/06/04 08:42:02;;;;;;;0.60;0.40;;;21.80;78.50;;;;;;5045976;28;20253;-63
2023/06/04 08:44:31;;;;;;;0.70;0.50;;;21.90;79.10;;;;;;5049410;28;20213;-62
2023/06/04 08:47:04;;;;;;;2.00;0.73;;;22.10;79.70;;;;;;5047363;28;20621;-63
2023/06/04 08:49:35;;;;;;;1.95;1.10;;;22.20;78.10;;;;;;5045671;28;20224;-63
2023/06/04 08:52:06;;;;;;;0.52;0.40;;;21.90;80.20;;;;;;5045059;28;20489;-63
2023/06/04 08:54:34;;;;;;;0.60;0.40;;;22.00;81.00;;;;;;5044737;28;20205;-63
2023/06/04 08:57:02;;;;;;;0.60;0.40;;;22.10;79.70;;;;;;5047454;28;20209;-63
2023/06/04 08:59:30;;;;;;;0.50;0.35;;;22.20;82.20;;;;;;5044704;28;20198;-63
2023/06/04 09:02:00;;;;;;;0.60;0.43;;;22.30;80.10;;;;;;5042569;28;20229;-63
2023/06/04 09:04:29;;;;;;;0.60;0.40;;;22.40;80.60;;;;;;5045270;28;20219;-63
2023/06/04 09:07:03;;;;;;;0.60;0.40;;;22.50;80.40;;;;;;5038328;28;20697;-63
2023/06/04 09:09:36;;;;;;;0.60;0.40;;;22.50;81.60;;;;;;5042826;28;20246;-63
2023/06/04 09:12:06;;;;;;;0.70;0.68;;;22.80;82.70;;;;;;5041932;28;20249;-63
2023/06/04 09:14:35;;;;;;;0.90;0.40;;;23.10;81.90;;;;;;5039326;28;20218;-63
2023/06/04 09:17:03;;;;;;;0.60;0.40;;;23.10;79.50;;;;;;5048270;28;20221;-63
2023/06/04 09:19:30;;;;;;;0.60;0.40;;;22.90;79.60;;;;;;5048391;28;20201;-63
2023/06/04 09:22:02;;;;;;;0.60;0.40;;;23.00;80.20;;;;;;5046809;28;20242;-63
2023/06/04 09:24:42;;;;;;;0.50;0.40;;;23.20;79.90;;;;;;5046966;28;20238;-62
2023/06/04 09:27:11;;;;;;;0.55;0.40;;;23.30;83.60;;;;;;5044418;28;20206;-63
2023/06/04 09:29:39;;;;;;;0.60;0.40;;;23.60;80.20;;;;;;5044068;28;20240;-63
2023/06/04 09:32:07;;;;;;;0.60;0.40;;;23.70;81.00;;;;;;5040709;28;20238;-63
2023/06/04 09:34:36;;;;;;;0.73;0.70;;;24.00;80.00;;;;;;5043696;28;20353;-64
2023/06/04 09:37:14;;;;;;;0.60;0.40;;;24.10;77.60;;;;;;5046178;28;20692;-64
2023/06/04 09:39:44;;;;;;;0.70;0.60;;;24.10;78.90;;;;;;5046387;28;20205;-64
2023/06/04 09:42:12;;;;;;;0.60;0.43;;;24.30;76.80;;;;;;5041890;28;20590;-63
2023/06/04 09:44:44;;;;;;;1.05;0.50;;;24.00;77.70;;;;;;5044317;28;20215;-63
2023/06/04 09:47:12;;;;;;;0.60;0.50;;;24.20;79.70;;;;;;5046442;28;20259;-64
2023/06/04 09:49:44;;;;;;;0.60;0.40;;;24.50;79.00;;;;;;5046424;28;21342;-64
2023/06/04 09:52:13;;;;;;;0.60;0.40;;;24.70;77.30;;;;;;5044056;28;20235;-64
2023/06/04 09:54:43;;;;;;;0.60;0.45;;;24.70;78.40;;;;;;5045030;28;20238;-63
2023/06/04 09:57:16;;;;;;;0.60;0.50;;;24.90;78.70;;;;;;5045001;28;20216;-64
2023/06/04 09:59:46;;;;;;;0.85;0.63;;;25.00;77.80;;;;;;5044402;28;20211;-64
2023/06/04 10:02:16;;;;;;;0.60;0.40;;;25.10;73.60;;;;;;5039856;28;20257;-64
2023/06/04 10:04:49;;;;;;;0.70;0.50;;;24.90;73.80;;;;;;5044854;28;20727;-64
2023/06/04 10:07:17;;;;;;;0.65;0.52;;;25.00;74.40;;;;;;5041064;28;20216;-64
2023/06/04 10:09:48;;;;;;;0.60;0.50;;;25.30;73.80;;;;;;5042551;28;20581;-64
2023/06/04 10:12:17;;;;;;;1.13;0.73;;;25.20;74.30;;;;;;5045286;28;20245;-64
2023/06/04 10:14:52;;;;;;;0.70;0.50;;;25.20;70.70;;;;;;5036487;28;20733;-64
2023/06/04 10:17:24;;;;;;;0.60;0.50;;;25.50;72.60;;;;;;5042805;28;20282;-64
2023/06/04 10:19:54;;;;;;;0.80;0.50;;;25.20;72.30;;;;;;5046543;28;20210;-64
2023/06/04 10:22:22;;;;;;;0.93;0.47;;;25.30;71.40;;;;;;5046054;28;20227;-63
2023/06/04 10:24:52;;;;;;;0.60;0.40;;;25.50;73.00;;;;;;5043310;28;20216;-64
2023/06/04 10:27:21;;;;;;;0.93;0.45;;;25.60;73.50;;;;;;5042454;28;20211;-64
2023/06/04 10:29:51;;;;;;;1.02;0.90;;;25.50;72.50;;;;;;5039120;28;20231;-64
2023/06/04 10:32:20;;;;;;;0.50;0.30;;;25.30;72.30;;;;;;5042478;28;20227;-64
2023/06/04 10:34:48;;;;;;;0.70;0.55;;;25.10;72.00;;;;;;5039464;28;20209;-63
2023/06/04 10:37:22;;;;;;;0.60;0.40;;;25.20;70.60;;;;;;5051353;28;20259;-64
2023/06/04 10:39:56;;;;;;;0.90;0.50;;;25.30;72.80;;;;;;5052143;28;20817;-64
2023/06/04 10:42:24;;;;;;;0.50;0.40;;;25.50;69.10;;;;;;5045559;28;21455;-65
2023/06/04 10:44:54;;;;;;;0.68;0.50;;;25.70;71.60;;;;;;5043506;28;20210;-64
2023/06/04 10:47:26;;;;;;;0.85;0.40;;;25.90;69.40;;;;;;5037502;28;20229;-64
2023/06/04 10:49:55;;;;;;;0.80;0.40;;;26.00;70.10;;;;;;5045624;28;20845;-64
2023/06/04 10:52:23;;;;;;;0.60;0.40;;;25.70;69.70;;;;;;5044618;28;20722;-64
2023/06/04 10:54:53;;;;;;;0.77;0.68;;;25.70;71.50;;;;;;5038722;28;20275;-63
2023/06/04 10:57:22;;;;;;;0.60;0.52;;;26.10;71.80;;;;;;5047378;28;20552;-64
2023/06/04 10:59:57;;;;;;;0.60;0.50;;;26.20;73.10;;;;;;5039572;28;20333;-64
2023/06/04 11:02:25;;;;;;;0.75;0.50;;;26.50;69.40;;;;;;5045221;28;20958;-63
2023/06/04 11:05:03;;;;;;;0.60;0.60;;;27.10;70.30;;;;;;5042424;28;20323;-64
2023/06/04 11:07:43;;;;;;;0.60;0.40;;;26.90;68.30;;;;;;5049223;28;20261;-63
2023/06/04 11:10:11;;;;;;;0.60;0.50;;;27.10;69.30;;;;;;5041996;28;20216;-64
2023/06/04 11:12:44;;;;;;;0.60;0.40;;;27.00;66.70;;;;;;5040517;28;20306;-64
2023/06/04 11:15:13;;;;;;;0.70;0.40;;;26.70;67.30;;;;;;5045058;28;20221;-63
2023/06/04 11:17:51;;;;;;;0.50;0.30;;;27.00;68.30;;;;;;5045462;28;20214;-64
2023/06/04 11:20:20;;;;;;;0.60;0.50;;;27.20;65.10;;;;;;5044840;28;20211;-64
2023/06/04 11:22:52;;;;;;;0.60;0.50;;;27.10;67.40;;;;;;5036828;28;20623;-63
2023/06/04 11:25:22;;;;;;;0.60;0.50;;;27.10;67.10;;;;;;5045270;28;20854;-64
2023/06/04 11:27:53;;;;;;;0.60;0.40;;;26.90;65.40;;;;;;5031482;28;21918;-64
2023/06/04 11:30:21;;;;;;;0.60;0.40;;;27.10;66.70;;;;;;5046854;28;20242;-64
2023/06/04 11:32:50;;;;;;;0.60;0.40;;;27.30;65.70;;;;;;5031640;28;20697;-64
2023/06/04 11:35:18;;;;;;;0.60;0.40;;;27.50;64.90;;;;;;5041225;28;20231;-64
2023/06/04 11:37:54;;;;;;;0.60;0.47;;;27.20;64.20;;;;;;5033585;28;20612;-64
2023/06/04 11:40:23;;;;;;;0.70;0.57;;;27.20;65.00;;;;;;5042486;28;20196;-63
2023/06/04 11:42:52;;;;;;;0.57;0.40;;;27.50;66.00;;;;;;5035586;28;20257;-64
2023/06/04 11:45:22;;;;;;;0.60;0.40;;;27.50;65.50;;;;;;5043540;28;20295;-64
2023/06/04 11:47:53;;;;;;;0.70;0.40;;;27.90;68.20;;;;;;5046541;28;20258;-65
2023/06/04 11:50:21;;;;;;;0.60;0.50;;;28.10;64.90;;;;;;5047247;28;20204;-64
2023/06/04 11:52:49;;;;;;;0.60;0.40;;;28.10;63.00;;;;;;5046073;28;20230;-65
2023/06/04 11:55:20;;;;;;;0.60;0.40;;;27.90;63.90;;;;;;5036608;28;20212;-64
2023/06/04 11:57:49;;;;;;;0.60;0.40;;;27.70;63.50;;;;;;5044609;28;20207;-65
2023/06/04 12:00:19;;;;;;;0.63;0.50;;;27.70;65.10;;;;;;5054566;28;20245;-65
2023/06/04 12:02:52;;;;;;;0.60;0.40;;;27.70;65.20;;;;;;5054198;28;20232;-65
2023/06/04 12:05:23;;;;;;;0.60;0.40;;;27.70;64.00;;;;;;5054343;28;20204;-65
2023/06/04 12:07:52;;;;;;;0.75;0.40;;;27.70;62.50;;;;;;5054003;28;20211;-65
2023/06/04 12:10:20;;;;;;;0.65;0.52;;;28.40;62.00;;;;;;5054566;28;20254;-65
2023/06/04 12:12:55;;;;;;;0.60;0.40;;;28.50;62.10;;;;;;5054054;28;20228;-65
2023/06/04 12:15:24;;;;;;;0.60;0.45;;;28.60;64.80;;;;;;5054302;28;20192;-65
2023/06/04 12:17:54;;;;;;;0.70;0.50;;;28.90;63.90;;;;;;5053726;28;20260;-64
2023/06/04 12:20:33;;;;;;;1.02;0.47;;;28.60;62.20;;;;;;5039144;28;20719;-65
2023/06/04 12:23:01;;;;;;;0.60;0.40;;;28.50;63.30;;;;;;5046401;28;20204;-66
2023/06/04 12:25:30;;;;;;;0.60;0.40;;;28.50;63.20;;;;;;5053914;28;20199;-65
2023/06/04 12:27:58;;;;;;;0.50;0.40;;;28.30;64.30;;;;;;5053377;28;20692;-65
2023/06/04 12:30:37;;;;;;;1.17;0.75;;;28.40;62.70;;;;;;5053969;28;20286;-65
2023/06/04 12:33:05;;;;;;;0.60;0.40;;;28.40;61.40;;;;;;5046657;28;20208;-65
2023/06/04 12:35:34;;;;;;;0.60;0.50;;;28.70;64.70;;;;;;5053814;28;20218;-65
2023/06/04 12:38:04;;;;;;;0.60;0.50;;;28.90;60.90;;;;;;5045726;28;20566;-65
2023/06/04 12:40:32;;;;;;;0.60;0.40;;;29.10;63.70;;;;;;5053633;28;20682;-65
2023/06/04 12:43:00;;;;;;;0.60;0.40;;;28.80;61.50;;;;;;5053774;28;20203;-65
2023/06/04 12:45:28;;;;;;;0.60;0.40;;;28.70;61.60;;;;;;5053642;28;20670;-65
2023/06/04 12:47:58;;;;;;;0.60;0.50;;;28.60;63.50;;;;;;5053114;28;20204;-65
2023/06/04 12:50:26;;;;;;;0.60;0.40;;;28.20;62.50;;;;;;5045708;28;20269;-65
2023/06/04 12:52:54;;;;;;;0.75;0.50;;;28.30;64.00;;;;;;5051982;28;20223;-65
2023/06/04 12:55:22;;;;;;;1.15;0.50;;;28.50;61.70;;;;;;5053324;28;20204;-64
2023/06/04 12:57:49;;;;;;;0.60;0.40;;;28.80;63.10;;;;;;5052548;28;20214;-65